createdAt,value
2023-05-06T00:01:15.873Z,8.52
2023-05-06T00:03:43.629Z,8.05
2023-05-06T00:06:11.597Z,9.15
2023-05-06T00:08:40.613Z,10.05
2023-05-06T00:11:08.348Z,9.90
2023-05-06T00:13:37.472Z,9.45
2023-05-06T00:16:05.566Z,9.73
2023-05-06T00:18:33.357Z,9.07
2023-05-06T00:21:00.995Z,8.57
2023-05-06T00:23:28.523Z,9.63
2023-05-06T00:25:57.524Z,9.57
2023-05-06T00:28:25.225Z,8.35
2023-05-06T00:30:52.808Z,8.02
2023-05-06T00:33:20.372Z,7.93
2023-05-06T00:35:48.234Z,8.65
2023-05-06T00:38:16.891Z,9.32
2023-05-06T00:40:44.500Z,7.82
2023-05-06T00:43:13.515Z,9.40
2023-05-06T00:45:41.411Z,9.18
2023-05-06T00:48:11.800Z,8.93
2023-05-06T00:50:41.408Z,8.52
2023-05-06T00:53:10.518Z,8.45
2023-05-06T00:55:39.432Z,7.32
2023-05-06T00:58:07.404Z,7.30
2023-05-06T01:00:36.661Z,7.68
2023-05-06T01:03:04.621Z,7.45
2023-05-06T01:05:37.567Z,8.20
2023-05-06T01:08:13.962Z,7.47
2023-05-06T01:10:48.684Z,7.45
2023-05-06T01:13:22.796Z,7.07
2023-05-06T01:15:55.358Z,7.68
2023-05-06T01:18:28.049Z,7.45
2023-05-06T01:20:56.808Z,7.32
2023-05-06T01:23:25.839Z,8.20
2023-05-06T01:25:53.496Z,6.90
2023-05-06T01:28:21.304Z,6.90
2023-05-06T01:30:56.509Z,6.78
2023-05-06T01:33:33.228Z,8.50
2023-05-06T01:36:10.106Z,7.60
2023-05-06T01:38:47.022Z,7.20
2023-05-06T01:41:16.869Z,7.72
2023-05-06T01:43:46.346Z,8.13
2023-05-06T01:46:18.105Z,7.50
2023-05-06T01:48:53.470Z,7.75
2023-05-06T01:51:22.267Z,6.70
2023-05-06T01:53:51.196Z,7.88
2023-05-06T01:56:18.831Z,6.75
2023-05-06T01:58:46.431Z,7.30
2023-05-06T02:01:14.083Z,6.38
2023-05-06T02:03:41.832Z,7.03
2023-05-06T02:06:09.490Z,6.07
2023-05-06T02:08:37.136Z,6.75
2023-05-06T02:11:06.152Z,6.32
2023-05-06T02:13:33.908Z,5.88
2023-05-06T02:16:02.262Z,5.57
2023-05-06T02:18:29.948Z,6.50
2023-05-06T02:20:57.561Z,6.30
2023-05-06T02:23:25.394Z,5.70
2023-05-06T02:25:53.091Z,5.63
2023-05-06T02:28:22.096Z,5.80
2023-05-06T02:30:49.632Z,4.90
2023-05-06T02:33:17.284Z,4.22
2023-05-06T02:35:45.046Z,4.10
2023-05-06T02:38:12.666Z,4.30
2023-05-06T02:40:42.965Z,4.38
2023-05-06T02:43:10.719Z,3.88
2023-05-06T02:45:39.850Z,3.85
2023-05-06T02:48:07.620Z,3.72
2023-05-06T02:50:36.297Z,3.40
2023-05-06T02:53:04.939Z,4.07
2023-05-06T02:55:32.552Z,3.97
2023-05-06T02:58:00.176Z,3.83
2023-05-06T03:00:27.849Z,3.65
2023-05-06T03:02:56.808Z,4.22
2023-05-06T03:05:24.446Z,4.13
2023-05-06T03:07:52.410Z,5.00
2023-05-06T03:10:20.325Z,4.20
2023-05-06T03:12:47.966Z,4.50
2023-05-06T03:15:15.526Z,5.15
2023-05-06T03:17:43.170Z,5.53
2023-05-06T03:20:13.502Z,5.03
2023-05-06T03:22:42.164Z,4.93
2023-05-06T03:25:10.478Z,5.72
2023-05-06T03:27:38.244Z,5.47
2023-05-06T03:30:06.515Z,5.88
2023-05-06T03:32:34.194Z,6.25
2023-05-06T03:35:01.820Z,5.88
2023-05-06T03:37:31.411Z,5.57
2023-05-06T03:40:00.616Z,6.43
2023-05-06T03:42:28.235Z,5.88
2023-05-06T03:44:55.768Z,5.65
2023-05-06T03:47:23.447Z,5.90
2023-05-06T03:49:51.116Z,5.05
2023-05-06T03:52:19.089Z,5.50
2023-05-06T03:54:48.074Z,6.00
2023-05-06T03:57:15.793Z,5.72
2023-05-06T03:59:43.411Z,6.65
2023-05-06T04:02:11.053Z,7.10
2023-05-06T04:04:38.647Z,6.05
2023-05-06T04:07:06.295Z,6.80
2023-05-06T04:09:33.964Z,6.70
2023-05-06T04:12:03.665Z,6.75
2023-05-06T04:14:31.406Z,7.97
2023-05-06T04:16:59.023Z,6.55
2023-05-06T04:19:26.824Z,6.43
2023-05-06T04:21:54.535Z,6.22
2023-05-06T04:24:22.932Z,5.68
2023-05-06T04:26:50.541Z,6.28
2023-05-06T04:29:19.529Z,6.70
2023-05-06T04:31:47.239Z,6.20
2023-05-06T04:34:16.508Z,6.35
2023-05-06T04:36:44.212Z,7.28
2023-05-06T04:39:11.797Z,6.63
2023-05-06T04:41:39.501Z,6.68
2023-05-06T04:44:07.332Z,6.20
2023-05-06T04:46:36.270Z,6.55
2023-05-06T04:49:03.928Z,6.13
2023-05-06T04:51:31.878Z,6.78
2023-05-06T04:53:59.608Z,6.93
2023-05-06T04:56:27.211Z,6.50
2023-05-06T04:58:54.801Z,6.63
2023-05-06T05:01:22.487Z,6.68
2023-05-06T05:03:51.443Z,6.93
2023-05-06T05:06:19.047Z,7.00
2023-05-06T05:08:46.709Z,6.22
2023-05-06T05:11:14.417Z,6.97
2023-05-06T05:13:41.963Z,6.57
2023-05-06T05:16:09.588Z,7.38
2023-05-06T05:18:37.319Z,7.50
2023-05-06T05:21:06.489Z,7.28
2023-05-06T05:23:34.145Z,6.43
2023-05-06T05:26:04.370Z,8.35
2023-05-06T05:28:32.161Z,7.22
2023-05-06T05:31:02.934Z,7.40
2023-05-06T05:33:30.769Z,6.88
2023-05-06T05:35:58.742Z,6.85
2023-05-06T05:38:27.718Z,8.27
2023-05-06T05:40:55.446Z,6.55
2023-05-06T05:43:25.896Z,8.05
2023-05-06T05:45:54.835Z,8.02
2023-05-06T05:48:23.870Z,7.38
2023-05-06T05:50:51.568Z,8.05
2023-05-06T05:53:19.310Z,7.97
2023-05-06T05:55:48.286Z,7.20
2023-05-06T05:58:16.187Z,8.30
2023-05-06T06:00:43.813Z,8.40
2023-05-06T06:03:11.593Z,7.57
2023-05-06T06:05:39.559Z,7.13
2023-05-06T06:08:07.400Z,7.60
2023-05-06T06:10:34.992Z,8.52
2023-05-06T06:13:04.081Z,8.30
2023-05-06T06:15:31.788Z,8.00
2023-05-06T06:17:59.469Z,8.50
2023-05-06T06:20:27.196Z,7.82
2023-05-06T06:22:54.868Z,9.07
2023-05-06T06:25:22.479Z,8.50
2023-05-06T06:27:50.080Z,9.05
2023-05-06T06:30:19.028Z,9.90
2023-05-06T06:32:51.701Z,8.38
2023-05-06T06:35:20.144Z,8.25
2023-05-06T06:37:48.035Z,8.23
2023-05-06T06:40:16.311Z,8.05
2023-05-06T06:42:44.052Z,9.52
2023-05-06T06:45:14.492Z,8.45
2023-05-06T06:47:43.613Z,8.45
2023-05-06T06:50:12.231Z,8.30
2023-05-06T06:52:39.930Z,8.25
2023-05-06T06:55:09.060Z,8.75
2023-05-06T06:57:37.532Z,7.43
2023-05-06T07:00:05.583Z,8.70
2023-05-06T07:02:33.270Z,8.35
2023-05-06T07:05:02.199Z,7.72
2023-05-06T07:07:30.088Z,8.35
2023-05-06T07:09:58.634Z,9.27
2023-05-06T07:12:26.796Z,8.07
2023-05-06T07:14:54.582Z,8.63
2023-05-06T07:17:22.300Z,7.75
2023-05-06T07:19:50.007Z,9.18
2023-05-06T07:22:19.425Z,8.32
2023-05-06T07:24:47.124Z,9.63
2023-05-06T07:27:14.718Z,8.25
2023-05-06T07:29:42.347Z,7.75
2023-05-06T07:32:10.283Z,7.80
2023-05-06T07:34:38.073Z,7.65
2023-05-06T07:37:07.875Z,7.78
2023-05-06T07:39:36.797Z,8.85
2023-05-06T07:42:05.026Z,7.93
2023-05-06T07:44:34.081Z,9.32
2023-05-06T07:47:01.718Z,8.18
2023-05-06T07:49:31.425Z,7.05
2023-05-06T07:51:59.294Z,8.13
2023-05-06T07:54:27.089Z,6.35
2023-05-06T07:56:56.105Z,7.03
2023-05-06T07:59:23.998Z,6.88
2023-05-06T08:01:51.684Z,6.25
2023-05-06T08:04:19.321Z,6.20
2023-05-06T08:06:47.134Z,9.00
2023-05-06T08:09:22.246Z,7.38
2023-05-06T08:11:50.733Z,7.38
2023-05-06T08:14:19.690Z,7.50
2023-05-06T08:16:47.628Z,6.60
2023-05-06T08:19:15.907Z,6.55
2023-05-06T08:21:43.485Z,6.55
2023-05-06T08:24:13.509Z,7.15
2023-05-06T08:26:41.711Z,8.05
2023-05-06T08:29:09.403Z,6.63
2023-05-06T08:31:38.427Z,7.93
2023-05-06T08:34:06.502Z,6.88
2023-05-06T08:36:34.191Z,7.45
2023-05-06T08:39:01.756Z,7.50
2023-05-06T08:41:31.323Z,8.05
2023-05-06T08:44:01.863Z,7.78
2023-05-06T08:46:30.929Z,7.25
2023-05-06T08:49:00.056Z,7.82
2023-05-06T08:51:31.513Z,8.15
2023-05-06T08:54:01.623Z,8.23
2023-05-06T08:56:33.585Z,7.95
2023-05-06T08:59:01.658Z,7.95
2023-05-06T09:01:29.953Z,7.72
2023-05-06T09:03:58.842Z,7.05
2023-05-06T09:06:27.801Z,7.53
2023-05-06T09:08:55.449Z,7.60
2023-05-06T09:11:24.964Z,6.57
2023-05-06T09:14:07.772Z,9.43
2023-05-06T09:16:35.677Z,9.68
2023-05-06T09:19:03.653Z,7.57
2023-05-06T09:21:35.669Z,9.43
2023-05-06T09:24:04.995Z,8.48
2023-05-06T09:26:33.695Z,7.63
2023-05-06T09:29:02.028Z,8.85
2023-05-06T09:31:30.160Z,9.30
2023-05-06T09:34:00.333Z,8.00
2023-05-06T09:36:29.167Z,7.20
2023-05-06T09:38:58.242Z,6.72
2023-05-06T09:41:26.691Z,6.32
2023-05-06T09:43:55.581Z,7.15
2023-05-06T09:46:24.345Z,8.13
2023-05-06T09:48:53.234Z,7.50
2023-05-06T09:51:21.050Z,7.97
2023-05-06T09:53:49.474Z,7.50
2023-05-06T09:56:18.845Z,8.40
2023-05-06T09:58:46.949Z,7.18
2023-05-06T10:01:25.192Z,7.20
2023-05-06T10:04:04.794Z,6.53
2023-05-06T10:06:35.584Z,6.38
2023-05-06T10:09:03.592Z,7.53
2023-05-06T10:11:33.309Z,7.25
2023-05-06T10:14:01.260Z,6.53
2023-05-06T10:16:29.419Z,8.65
2023-05-06T10:18:57.349Z,7.30
2023-05-06T10:21:27.398Z,6.65
2023-05-06T10:24:01.883Z,6.40
2023-05-06T10:26:31.363Z,7.85
2023-05-06T10:29:02.637Z,6.82
2023-05-06T10:31:31.867Z,7.20
2023-05-06T10:34:04.042Z,6.85
2023-05-06T10:36:36.219Z,8.23
2023-05-06T10:39:04.839Z,6.32
2023-05-06T10:41:33.284Z,7.68
2023-05-06T10:44:02.198Z,10.50
2023-05-06T10:46:30.668Z,8.82
2023-05-06T10:49:18.289Z,7.32
2023-05-06T10:51:46.829Z,6.93
2023-05-06T10:54:23.716Z,6.28
2023-05-06T10:57:10.250Z,7.07
2023-05-06T10:59:46.410Z,6.72
2023-05-06T11:02:15.352Z,6.80
2023-05-06T11:04:43.116Z,6.72
2023-05-06T11:07:12.309Z,6.80
2023-05-06T11:09:56.236Z,6.72
2023-05-06T11:12:48.914Z,6.45
2023-05-06T11:15:24.775Z,6.70
2023-05-06T11:17:54.038Z,7.90
2023-05-06T11:20:23.871Z,7.90
2023-05-06T11:22:51.904Z,7.47
2023-05-06T11:25:41.517Z,7.80
2023-05-06T11:28:11.474Z,8.13
2023-05-06T11:30:43.359Z,7.95
2023-05-06T11:33:18.628Z,7.95
2023-05-06T11:35:46.302Z,7.43
2023-05-06T11:38:13.926Z,7.78
2023-05-06T11:40:42.508Z,9.23
2023-05-06T11:43:11.191Z,7.88
2023-05-06T11:45:44.563Z,8.20
2023-05-06T11:48:13.073Z,9.15
2023-05-06T11:50:45.533Z,8.93
2023-05-06T11:53:13.167Z,8.90
2023-05-06T11:55:40.820Z,7.72
2023-05-06T11:58:13.768Z,8.88
2023-05-06T12:00:51.421Z,9.48
2023-05-06T12:03:19.788Z,8.27
2023-05-06T12:05:48.682Z,8.30
2023-05-06T12:08:26.896Z,9.57
2023-05-06T12:10:57.172Z,7.10
2023-05-06T12:13:24.936Z,6.85
2023-05-06T12:15:55.711Z,7.65
2023-05-06T12:18:24.063Z,6.68
2023-05-06T12:20:54.566Z,6.03
2023-05-06T12:23:22.641Z,6.70
2023-05-06T12:26:02.029Z,6.50
2023-05-06T12:28:29.997Z,5.78
2023-05-06T12:30:59.167Z,5.63
2023-05-06T12:33:26.792Z,6.57
2023-05-06T12:35:57.045Z,5.32
2023-05-06T12:38:25.011Z,7.03
2023-05-06T12:40:55.259Z,6.13
2023-05-06T12:43:30.345Z,5.60
2023-05-06T12:46:07.364Z,5.68
2023-05-06T12:48:35.418Z,6.22
2023-05-06T12:51:18.390Z,6.43
2023-05-06T12:53:46.058Z,5.28
2023-05-06T12:56:13.933Z,4.85
2023-05-06T12:58:41.539Z,5.25
2023-05-06T13:01:10.500Z,5.95
2023-05-06T13:03:40.678Z,4.63
2023-05-06T13:06:08.424Z,4.80
2023-05-06T13:08:36.091Z,4.95
2023-05-06T13:11:03.750Z,5.45
2023-05-06T13:13:31.455Z,4.53
2023-05-06T13:15:59.370Z,4.43
2023-05-06T13:18:28.324Z,4.47
2023-05-06T13:20:55.949Z,3.33
2023-05-06T13:23:23.627Z,3.25
2023-05-06T13:26:03.602Z,3.90
2023-05-06T13:28:33.500Z,4.03
2023-05-06T13:31:01.360Z,2.90
2023-05-06T13:33:31.689Z,3.60
2023-05-06T13:35:59.356Z,3.45
2023-05-06T13:38:28.101Z,3.95
2023-05-06T13:40:56.016Z,3.63
2023-05-06T13:43:25.448Z,2.72
2023-05-06T13:45:53.743Z,3.50
2023-05-06T13:48:21.396Z,3.10
2023-05-06T13:50:50.491Z,2.55
2023-05-06T13:53:18.261Z,2.47
2023-05-06T13:55:46.532Z,3.47
2023-05-06T13:58:14.153Z,2.70
2023-05-06T14:00:41.770Z,2.50
2023-05-06T14:03:09.555Z,2.75
2023-05-06T14:05:37.406Z,2.55
2023-05-06T14:08:08.451Z,2.92
2023-05-06T14:10:36.092Z,2.25
2023-05-06T14:13:06.764Z,3.03
2023-05-06T14:15:34.789Z,2.92
2023-05-06T14:18:02.807Z,3.05
2023-05-06T14:20:30.583Z,2.65
2023-05-06T14:22:58.228Z,3.03
2023-05-06T14:25:27.923Z,3.20
2023-05-06T14:27:56.153Z,2.28
2023-05-06T14:30:25.636Z,2.80
2023-05-06T14:32:53.411Z,3.15
2023-05-06T14:35:21.164Z,2.90
2023-05-06T14:37:48.779Z,3.05
2023-05-06T14:40:17.068Z,2.70
2023-05-06T14:42:46.735Z,3.17
2023-05-06T14:45:15.710Z,2.67
2023-05-06T14:47:43.919Z,2.40
2023-05-06T14:50:12.757Z,2.65
2023-05-06T14:52:41.935Z,2.72
2023-05-06T14:55:11.905Z,2.70
2023-05-06T14:57:39.842Z,1.67
2023-05-06T15:00:10.105Z,1.75
2023-05-06T15:02:40.495Z,3.08
2023-05-06T15:05:09.968Z,2.30
2023-05-06T15:07:37.848Z,2.42
2023-05-06T15:10:06.237Z,2.70
2023-05-06T15:12:34.690Z,2.17
2023-05-06T15:15:02.498Z,2.00
2023-05-06T15:17:31.490Z,2.08
2023-05-06T15:19:59.291Z,2.22
2023-05-06T15:22:27.088Z,2.22
2023-05-06T15:24:54.693Z,2.08
2023-05-06T15:27:22.228Z,2.78
2023-05-06T15:29:49.897Z,1.80
2023-05-06T15:32:17.585Z,2.03
2023-05-06T15:34:46.577Z,2.10
2023-05-06T15:37:15.835Z,1.85
2023-05-06T15:39:43.535Z,2.70
2023-05-06T15:42:11.183Z,2.65
2023-05-06T15:44:38.745Z,1.63
2023-05-06T15:47:06.404Z,3.47
2023-05-06T15:49:52.119Z,2.03
2023-05-06T15:52:23.566Z,2.13
2023-05-06T15:54:51.609Z,3.13
2023-05-06T15:57:20.374Z,2.55
2023-05-06T15:59:47.985Z,2.45
2023-05-06T16:04:46.494Z,2.63
2023-05-06T16:07:14.338Z,2.08
2023-05-06T16:09:44.236Z,2.13
2023-05-06T16:12:12.016Z,2.75
2023-05-06T16:14:39.565Z,3.17
2023-05-06T16:17:07.137Z,2.75
2023-05-06T16:19:34.769Z,2.72
2023-05-06T16:22:02.528Z,2.55
2023-05-06T16:24:30.164Z,2.00
2023-05-06T16:26:59.106Z,2.50
2023-05-06T16:29:27.675Z,2.63
2023-05-06T16:31:55.448Z,2.63
2023-05-06T16:34:23.279Z,1.65
2023-05-06T16:36:51.217Z,2.22
2023-05-06T16:39:18.944Z,2.22
2023-05-06T16:41:47.051Z,2.47
2023-05-06T16:44:16.052Z,1.92
2023-05-06T16:46:43.699Z,2.08
2023-05-06T16:49:11.258Z,1.67
2023-05-06T16:51:38.862Z,3.15
2023-05-06T16:54:06.555Z,2.28
2023-05-06T16:56:44.503Z,3.10
2023-05-06T16:59:20.770Z,3.60
2023-05-06T17:01:49.559Z,5.75
2023-05-06T17:04:17.203Z,4.97
2023-05-06T17:06:44.856Z,5.03
2023-05-06T17:09:12.955Z,5.85
2023-05-06T17:11:40.652Z,5.80
2023-05-06T17:14:08.333Z,8.23
2023-05-06T17:16:37.359Z,7.25
2023-05-06T17:19:05.401Z,7.95
2023-05-06T17:21:33.116Z,7.60
2023-05-06T17:24:00.853Z,7.63
2023-05-06T17:26:28.586Z,7.15
2023-05-06T17:28:57.090Z,7.28
2023-05-06T17:31:24.898Z,7.55
2023-05-06T17:33:54.166Z,6.03
2023-05-06T17:36:21.996Z,7.43
2023-05-06T17:38:49.954Z,7.75
2023-05-06T17:41:17.682Z,7.13
2023-05-06T17:43:47.557Z,8.18
2023-05-06T17:46:16.852Z,7.75
2023-05-06T17:48:46.168Z,8.80
2023-05-06T17:51:15.080Z,7.82
2023-05-06T17:53:43.091Z,7.57
2023-05-06T17:56:11.127Z,8.90
2023-05-06T17:58:39.094Z,8.20
2023-05-06T18:01:07.087Z,7.75
2023-05-06T18:03:35.079Z,8.73
2023-05-06T18:06:02.762Z,10.18
2023-05-06T18:08:31.888Z,9.35
2023-05-06T18:11:00.059Z,8.50
2023-05-06T18:13:27.777Z,8.48
2023-05-06T18:15:55.875Z,8.20
2023-05-06T18:18:27.717Z,7.72
2023-05-06T18:20:56.825Z,7.97
2023-05-06T18:23:26.575Z,7.80
2023-05-06T18:25:56.625Z,8.23
2023-05-06T18:28:25.344Z,7.03
2023-05-06T18:30:53.283Z,7.32
2023-05-06T18:33:21.715Z,6.97
2023-05-06T18:35:49.683Z,7.43
2023-05-06T18:38:17.646Z,8.43
2023-05-06T18:40:47.252Z,9.27
2023-05-06T18:43:16.531Z,7.03
2023-05-06T18:45:44.375Z,8.38
2023-05-06T18:48:12.170Z,7.05
2023-05-06T18:50:39.986Z,7.32
2023-05-06T18:53:07.951Z,6.25
2023-05-06T18:55:36.922Z,6.80
2023-05-06T18:58:05.752Z,7.47
2023-05-06T19:00:35.875Z,8.45
2023-05-06T19:03:03.740Z,7.75
2023-05-06T19:05:31.519Z,8.23
2023-05-06T19:07:59.171Z,7.47
2023-05-06T19:10:27.261Z,7.85
2023-05-06T19:12:55.039Z,10.40
2023-05-06T19:15:23.010Z,8.77
2023-05-06T19:17:52.005Z,8.50
2023-05-06T19:20:20.126Z,9.38
2023-05-06T19:22:47.924Z,9.48
2023-05-06T19:25:15.650Z,8.32
2023-05-06T19:27:43.634Z,9.07
2023-05-06T19:30:12.030Z,7.53
2023-05-06T19:32:40.327Z,9.23
2023-05-06T19:35:10.914Z,8.07
2023-05-06T19:37:39.588Z,8.95
2023-05-06T19:40:08.956Z,7.43
2023-05-06T19:42:36.669Z,8.13
2023-05-06T19:45:08.155Z,8.82
2023-05-06T19:47:36.225Z,10.52
2023-05-06T19:50:03.977Z,11.45
2023-05-06T19:52:34.825Z,10.07
2023-05-06T19:55:03.207Z,9.50
2023-05-06T19:57:31.881Z,9.30
2023-05-06T19:59:59.732Z,9.88
2023-05-06T20:02:27.835Z,10.30
2023-05-06T20:04:55.871Z,8.98
2023-05-06T20:07:23.682Z,10.25
2023-05-06T20:09:55.548Z,10.05
2023-05-06T20:12:23.523Z,10.48
2023-05-06T20:14:51.165Z,11.27
2023-05-06T20:17:20.411Z,11.88
2023-05-06T20:19:48.272Z,12.77
2023-05-06T20:22:16.991Z,14.20
2023-05-06T20:24:45.297Z,12.68
2023-05-06T20:27:14.414Z,12.77
2023-05-06T20:29:42.701Z,13.48
2023-05-06T20:32:10.461Z,11.70
2023-05-06T20:34:38.309Z,12.25
2023-05-06T20:37:06.604Z,12.07
2023-05-06T20:39:34.166Z,13.48
2023-05-06T20:42:01.877Z,12.20
2023-05-06T20:44:30.845Z,13.63
2023-05-06T20:46:58.418Z,13.23
2023-05-06T20:49:26.241Z,12.95
2023-05-06T20:51:53.948Z,13.07
2023-05-06T20:54:21.578Z,14.18
2023-05-06T20:56:49.382Z,12.77
2023-05-06T20:59:17.074Z,12.98
2023-05-06T21:01:46.249Z,13.00
2023-05-06T21:04:14.395Z,11.68
2023-05-06T21:06:41.959Z,12.48
2023-05-06T21:09:09.827Z,12.88
2023-05-06T21:11:37.425Z,12.15
2023-05-06T21:14:05.424Z,11.25
2023-05-06T21:16:33.131Z,10.90
2023-05-06T21:19:02.254Z,12.10
2023-05-06T21:21:32.712Z,10.70
2023-05-06T21:24:01.626Z,11.13
2023-05-06T21:26:31.651Z,10.20
2023-05-06T21:28:59.328Z,10.98
2023-05-06T21:31:30.063Z,10.40
2023-05-06T21:33:59.598Z,10.25
2023-05-06T21:36:28.575Z,12.05
2023-05-06T21:39:11.863Z,9.63
2023-05-06T21:41:39.980Z,10.65
2023-05-06T21:44:09.080Z,9.80
2023-05-06T21:46:37.734Z,9.90
2023-05-06T21:49:05.638Z,9.63
2023-05-06T21:51:37.928Z,9.85
2023-05-06T21:54:05.668Z,9.55
2023-05-06T21:56:33.513Z,11.70
2023-05-06T21:59:01.250Z,10.00
2023-05-06T22:01:29.131Z,10.13
2023-05-06T22:03:57.092Z,9.55
2023-05-06T22:06:24.870Z,11.45
2023-05-06T22:08:53.943Z,9.90
2023-05-06T22:11:22.878Z,9.77
2023-05-06T22:13:50.588Z,9.30
2023-05-06T22:16:19.079Z,9.38
2023-05-06T22:18:47.371Z,9.65
2023-05-06T22:21:15.110Z,9.05
2023-05-06T22:23:42.807Z,9.68
2023-05-06T22:26:11.789Z,8.80
2023-05-06T22:28:39.385Z,9.27
2023-05-06T22:31:07.047Z,8.32
2023-05-06T22:33:34.772Z,9.05
2023-05-06T22:36:03.210Z,8.95
2023-05-06T22:38:31.332Z,9.73
2023-05-06T22:40:58.968Z,8.95
2023-05-06T22:43:28.692Z,9.52
2023-05-06T22:45:56.794Z,10.25
2023-05-06T22:48:25.118Z,8.85
2023-05-06T22:50:53.701Z,8.15
2023-05-06T22:53:21.259Z,9.07
2023-05-06T22:55:48.848Z,9.35
2023-05-06T22:58:16.964Z,9.55
2023-05-06T23:00:47.758Z,9.70
2023-05-06T23:03:18.010Z,11.93
2023-05-06T23:05:45.723Z,11.63
2023-05-06T23:08:13.302Z,13.18
2023-05-06T23:10:41.375Z,11.00
2023-05-06T23:13:09.219Z,12.15
2023-05-06T23:15:37.206Z,12.20
2023-05-06T23:18:06.641Z,10.90
2023-05-06T23:20:34.390Z,14.10
2023-05-06T23:23:02.097Z,11.52
2023-05-06T23:25:29.730Z,13.07
2023-05-06T23:27:57.313Z,11.73
2023-05-06T23:30:25.054Z,11.68
2023-05-06T23:32:52.746Z,12.68
2023-05-06T23:35:21.851Z,13.10
2023-05-06T23:37:49.524Z,15.10
2023-05-06T23:40:17.114Z,14.60
2023-05-06T23:42:44.795Z,12.18
2023-05-06T23:45:12.716Z,12.23
2023-05-06T23:47:41.030Z,11.00
2023-05-06T23:50:09.699Z,11.57
2023-05-06T23:52:39.398Z,12.15
2023-05-06T23:55:07.799Z,13.15
2023-05-06T23:57:35.575Z,11.75
